Time;durP1;ratioP1;P1;durP2;ratioP2;P2;SDS_P1;SDS_P2;PMS_P1;PMS_P2;Temp;Humidity;BMP_temperature;BMP_pressure;BME280_temperature;BME280_humidity;BME280_pressure;Samples;Min_cycle;Max_cycle;Signal;HPM_P1;HPM_P2
2023/09/26 00:00:06;;;;;;;11.07;7.93;;;16.00;99.90;;;;;;4973912;28;20414;-73
2023/09/26 00:02:32;;;;;;;11.45;8.18;;;16.00;99.90;;;;;;4988220;28;20410;-74
2023/09/26 00:04:58;;;;;;;10.65;8.32;;;16.00;99.90;;;;;;4997331;28;20410;-73
2023/09/26 00:07:24;;;;;;;12.32;8.20;;;15.90;99.90;;;;;;4981012;28;20406;-73
2023/09/26 00:09:49;;;;;;;10.73;8.20;;;15.70;99.90;;;;;;4962957;28;20434;-73
2023/09/26 00:12:15;;;;;;;11.67;8.73;;;15.80;99.90;;;;;;4990747;28;20484;-73
2023/09/26 00:14:41;;;;;;;9.50;7.88;;;15.80;99.90;;;;;;4989604;28;20448;-73
2023/09/26 00:17:06;;;;;;;11.48;8.65;;;15.70;99.90;;;;;;4984581;28;20411;-73
2023/09/26 00:19:32;;;;;;;12.80;9.30;;;15.70;99.90;;;;;;4995254;28;20479;-73
2023/09/26 00:21:58;;;;;;;10.95;8.90;;;15.70;99.90;;;;;;4976003;28;20464;-73
2023/09/26 00:24:23;;;;;;;12.83;9.10;;;15.70;99.90;;;;;;4997972;28;20455;-73
2023/09/26 00:26:49;;;;;;;12.55;8.75;;;15.60;99.90;;;;;;4985957;28;20420;-72
2023/09/26 00:29:15;;;;;;;12.70;9.43;;;15.40;99.90;;;;;;5004618;28;20412;-73
2023/09/26 00:31:40;;;;;;;11.67;9.60;;;15.70;99.90;;;;;;4996480;28;20407;-73
2023/09/26 00:34:06;;;;;;;12.40;9.13;;;15.30;99.90;;;;;;4981416;28;20473;-73
2023/09/26 00:36:32;;;;;;;11.77;9.90;;;15.70;99.90;;;;;;4977530;28;20418;-73
2023/09/26 00:38:57;;;;;;;13.43;10.02;;;15.50;99.90;;;;;;4999936;28;20434;-73
2023/09/26 00:41:23;;;;;;;11.65;10.00;;;15.30;99.90;;;;;;4995998;28;20527;-73
2023/09/26 00:43:49;;;;;;;14.55;10.57;;;15.30;99.90;;;;;;4987811;28;20414;-72
2023/09/26 00:46:17;;;;;;;11.83;10.17;;;15.40;99.90;;;;;;4994003;28;20405;-72
2023/09/26 00:48:43;;;;;;;11.68;10.45;;;15.20;99.90;;;;;;4997800;28;20465;-73
2023/09/26 00:51:09;;;;;;;14.52;10.57;;;14.90;99.90;;;;;;4999619;28;20427;-73
2023/09/26 00:53:38;;;;;;;13.02;10.45;;;15.10;99.90;;;;;;4988503;28;20415;-73
2023/09/26 00:56:04;;;;;;;13.98;10.80;;;14.90;99.90;;;;;;4987731;28;20421;-73
2023/09/26 00:58:33;;;;;;;13.27;11.13;;;15.10;99.90;;;;;;4994960;28;20493;-73
2023/09/26 01:00:59;;;;;;;13.53;10.70;;;14.80;99.90;;;;;;4991496;28;20433;-72
2023/09/26 01:03:25;;;;;;;12.95;10.77;;;14.80;99.90;;;;;;4997577;28;20409;-72
2023/09/26 01:05:50;;;;;;;12.87;11.10;;;14.60;99.90;;;;;;4981251;28;20758;-73
2023/09/26 01:08:17;;;;;;;12.40;10.50;;;14.60;99.90;;;;;;4990454;28;20781;-73
2023/09/26 01:10:44;;;;;;;13.35;11.10;;;14.70;99.90;;;;;;4991248;28;20720;-73
2023/09/26 01:13:10;;;;;;;13.13;11.73;;;14.60;99.90;;;;;;4974607;28;20444;-73
2023/09/26 01:15:42;;;;;;;15.17;11.90;;;14.60;99.90;;;;;;5009231;28;20405;-73
2023/09/26 01:18:09;;;;;;;14.18;11.02;;;14.50;99.90;;;;;;4998055;28;20421;-73
2023/09/26 01:20:38;;;;;;;13.82;10.90;;;14.50;99.90;;;;;;4990619;28;20783;-73
2023/09/26 01:23:06;;;;;;;12.88;10.73;;;14.40;99.90;;;;;;4994531;28;20423;-73
2023/09/26 01:25:35;;;;;;;16.58;11.45;;;14.60;99.90;;;;;;4976195;28;20402;-73
2023/09/26 01:28:06;;;;;;;13.43;11.40;;;14.60;99.90;;;;;;4991696;28;20405;-73
2023/09/26 01:30:33;;;;;;;14.82;11.65;;;14.70;99.90;;;;;;4994501;28;20423;-73
2023/09/26 01:33:00;;;;;;;13.68;10.85;;;14.50;99.90;;;;;;4987939;28;20489;-73
2023/09/26 01:35:26;;;;;;;13.52;11.05;;;14.90;99.90;;;;;;4990279;28;20417;-73
2023/09/26 01:37:52;;;;;;;12.32;10.70;;;14.60;99.90;;;;;;4997334;28;20431;-73
2023/09/26 01:40:17;;;;;;;14.80;11.73;;;14.60;99.90;;;;;;4990352;28;20436;-73
2023/09/26 01:42:43;;;;;;;12.80;11.27;;;14.50;99.90;;;;;;4998754;28;20497;-73
2023/09/26 01:45:10;;;;;;;15.77;11.63;;;14.40;99.90;;;;;;4997856;28;20421;-73
2023/09/26 01:47:46;;;;;;;13.65;11.13;;;14.70;99.90;;;;;;4979020;28;20448;-73
2023/09/26 01:50:12;;;;;;;12.32;10.35;;;14.60;99.90;;;;;;4994773;28;20418;-72
2023/09/26 01:52:38;;;;;;;15.63;11.60;;;14.70;99.90;;;;;;4998650;28;20494;-72
2023/09/26 01:55:05;;;;;;;14.43;12.02;;;14.40;99.90;;;;;;4991623;28;20437;-72
2023/09/26 01:57:37;;;;;;;14.65;11.30;;;14.40;99.90;;;;;;5009152;28;20780;-73
2023/09/26 02:00:11;;;;;;;14.80;11.63;;;14.30;99.90;;;;;;4993101;28;20460;-73
2023/09/26 02:02:41;;;;;;;14.77;12.40;;;14.30;99.90;;;;;;4995106;28;20442;-72
2023/09/26 02:05:11;;;;;;;14.35;12.60;;;14.50;99.90;;;;;;5006236;28;20412;-72
2023/09/26 02:07:38;;;;;;;15.90;13.13;;;14.30;99.90;;;;;;4995711;28;20861;-72
2023/09/26 02:10:04;;;;;;;13.90;12.18;;;14.30;99.90;;;;;;4997757;28;20410;-73
2023/09/26 02:12:31;;;;;;;16.83;12.60;;;14.20;99.90;;;;;;4996780;28;20921;-72
2023/09/26 02:14:57;;;;;;;13.77;11.80;;;14.00;99.90;;;;;;4999239;28;20893;-72
2023/09/26 02:17:22;;;;;;;15.02;12.00;;;14.00;99.90;;;;;;4981894;28;20442;-73
2023/09/26 02:19:48;;;;;;;17.25;13.20;;;14.10;99.90;;;;;;4958526;28;20517;-72
2023/09/26 02:22:14;;;;;;;15.50;13.07;;;14.00;99.90;;;;;;4990269;28;20501;-73
2023/09/26 02:24:40;;;;;;;16.93;13.73;;;;;;;;;;4974251;28;20407;-73
2023/09/26 02:27:06;;;;;;;15.18;12.95;;;13.80;99.90;;;;;;5004342;28;20405;-72
2023/09/26 02:29:32;;;;;;;14.88;12.93;;;14.00;99.90;;;;;;4994902;28;20448;-72
2023/09/26 02:31:57;;;;;;;15.93;13.57;;;13.90;99.90;;;;;;4992067;28;20433;-73
2023/09/26 02:34:23;;;;;;;15.30;13.70;;;14.00;99.90;;;;;;4991145;28;20415;-73
2023/09/26 02:36:49;;;;;;;15.93;13.43;;;14.00;99.90;;;;;;4991324;28;20407;-79
2023/09/26 02:39:15;;;;;;;15.97;13.60;;;13.90;99.90;;;;;;4991847;28;20411;-79
2023/09/26 02:41:41;;;;;;;17.13;13.73;;;13.90;99.90;;;;;;4989512;28;20463;-79
2023/09/26 02:44:06;;;;;;;17.23;14.00;;;13.90;99.90;;;;;;4991689;28;20467;-79
2023/09/26 02:46:33;;;;;;;16.33;14.23;;;14.00;99.90;;;;;;4976983;28;20425;-78
2023/09/26 02:49:00;;;;;;;18.03;14.47;;;13.80;99.90;;;;;;4991482;28;20410;-79
2023/09/26 02:51:26;;;;;;;17.38;13.25;;;;;;;;;;5008329;28;20504;-78
2023/09/26 02:53:52;;;;;;;15.85;13.13;;;13.90;99.90;;;;;;4992454;28;20939;-72
2023/09/26 02:56:18;;;;;;;16.33;13.25;;;;;;;;;;4990902;28;20449;-73
2023/09/26 02:58:44;;;;;;;16.15;13.05;;;13.90;99.90;;;;;;4996176;28;20427;-73
2023/09/26 03:01:15;;;;;;;16.80;13.95;;;13.90;99.90;;;;;;4976454;28;21047;-73
2023/09/26 03:03:41;;;;;;;17.00;13.43;;;13.80;99.90;;;;;;4993680;28;20473;-73
2023/09/26 03:06:07;;;;;;;17.20;13.50;;;13.90;99.90;;;;;;4979294;28;20486;-73
2023/09/26 03:08:32;;;;;;;16.48;13.82;;;13.70;99.90;;;;;;4997891;28;20411;-73
2023/09/26 03:10:59;;;;;;;17.90;13.80;;;;;;;;;;4989026;28;20411;-72
2023/09/26 03:13:25;;;;;;;16.65;14.40;;;13.70;99.90;;;;;;4997830;28;20505;-73
2023/09/26 03:15:55;;;;;;;17.23;14.55;;;13.60;99.90;;;;;;4991775;28;20554;-73
2023/09/26 03:18:21;;;;;;;18.05;14.45;;;13.80;99.90;;;;;;4992925;28;20924;-73
2023/09/26 03:20:47;;;;;;;18.80;13.93;;;13.70;99.90;;;;;;5000915;28;20567;-73
2023/09/26 03:23:13;;;;;;;21.80;14.57;;;13.90;99.90;;;;;;5008114;28;20449;-73
2023/09/26 03:25:38;;;;;;;17.88;14.77;;;13.50;99.90;;;;;;5004665;28;20414;-73
2023/09/26 03:28:04;;;;;;;16.13;14.27;;;;;;;;;;5001263;28;20412;-73
2023/09/26 03:30:30;;;;;;;16.58;14.00;;;13.90;99.90;;;;;;5008351;28;20401;-73
2023/09/26 03:32:56;;;;;;;18.63;13.95;;;13.90;99.90;;;;;;4973226;28;20430;-73
2023/09/26 03:35:21;;;;;;;16.77;13.57;;;14.10;99.90;;;;;;4974925;28;20445;-73
2023/09/26 03:37:47;;;;;;;14.32;12.82;;;14.00;99.90;;;;;;4974112;28;20427;-72
2023/09/26 03:40:13;;;;;;;15.97;13.67;;;14.00;99.90;;;;;;4988986;28;20437;-73
2023/09/26 03:42:39;;;;;;;15.90;13.57;;;13.90;99.90;;;;;;4988881;28;20412;-72
2023/09/26 03:45:06;;;;;;;16.60;13.30;;;14.00;99.90;;;;;;4972508;28;20437;-72
2023/09/26 03:47:32;;;;;;;15.80;13.80;;;14.10;99.90;;;;;;4978125;28;20398;-72
2023/09/26 03:49:58;;;;;;;15.38;13.10;;;14.00;99.90;;;;;;4992666;28;20416;-73
2023/09/26 03:52:23;;;;;;;16.10;13.13;;;14.00;99.90;;;;;;4989992;28;20826;-73
2023/09/26 03:54:50;;;;;;;15.90;14.10;;;14.00;99.90;;;;;;4989668;28;20470;-73
2023/09/26 03:57:15;;;;;;;15.90;14.25;;;13.80;99.90;;;;;;5005727;28;20416;-73
2023/09/26 03:59:41;;;;;;;17.17;14.27;;;14.10;99.90;;;;;;4981277;28;20855;-73
2023/09/26 04:02:07;;;;;;;15.27;13.68;;;;;;;;;;4999851;28;20507;-73
2023/09/26 04:04:34;;;;;;;17.48;13.35;;;14.00;99.90;;;;;;4992330;28;20416;-73
2023/09/26 04:07:00;;;;;;;15.98;13.70;;;14.00;99.90;;;;;;4985106;28;20401;-73
2023/09/26 04:09:26;;;;;;;15.15;13.05;;;14.10;99.90;;;;;;4989609;28;20518;-73
2023/09/26 04:11:51;;;;;;;16.63;14.10;;;14.10;99.90;;;;;;4972343;28;20398;-72
2023/09/26 04:14:17;;;;;;;16.10;14.20;;;14.00;99.90;;;;;;4991804;28;20816;-73
2023/09/26 04:16:42;;;;;;;16.55;13.52;;;14.00;99.90;;;;;;5002183;28;20416;-73
2023/09/26 04:19:08;;;;;;;16.23;14.53;;;14.20;99.90;;;;;;4998745;28;20440;-73
2023/09/26 04:21:34;;;;;;;18.87;14.83;;;14.10;99.90;;;;;;5007712;28;20505;-72
2023/09/26 04:24:04;;;;;;;17.10;14.30;;;14.10;99.90;;;;;;4995804;28;20418;-73
2023/09/26 04:26:30;;;;;;;17.80;14.38;;;14.30;99.90;;;;;;4988350;28;20434;-73
2023/09/26 04:28:55;;;;;;;17.27;14.50;;;14.30;99.90;;;;;;4978325;28;20411;-72
2023/09/26 04:31:21;;;;;;;19.42;15.77;;;14.20;99.90;;;;;;4991420;28;20905;-73
2023/09/26 04:33:48;;;;;;;17.17;14.60;;;14.40;99.90;;;;;;4989391;28;20429;-74
2023/09/26 04:36:14;;;;;;;17.93;14.77;;;14.20;99.90;;;;;;4995134;28;20498;-73
2023/09/26 04:38:40;;;;;;;18.30;14.82;;;14.40;99.90;;;;;;4992157;28;20440;-74
2023/09/26 04:41:06;;;;;;;16.27;14.43;;;14.30;99.90;;;;;;5003874;28;20460;-74
2023/09/26 04:43:32;;;;;;;18.52;15.07;;;14.40;99.90;;;;;;4992584;28;20433;-74
2023/09/26 04:45:58;;;;;;;21.70;15.60;;;14.30;99.90;;;;;;4996571;28;20422;-74
2023/09/26 04:48:24;;;;;;;18.40;15.00;;;14.30;99.90;;;;;;4960074;28;20414;-74
2023/09/26 04:50:50;;;;;;;19.73;15.27;;;14.20;99.90;;;;;;5009235;28;20773;-74
2023/09/26 04:53:16;;;;;;;20.35;15.65;;;14.40;99.90;;;;;;4980565;28;20455;-74
2023/09/26 04:55:42;;;;;;;19.48;15.02;;;14.20;99.90;;;;;;4995847;28;20496;-74
2023/09/26 04:58:09;;;;;;;20.08;15.50;;;14.30;99.90;;;;;;4992341;28;20968;-74
2023/09/26 05:00:36;;;;;;;18.88;15.30;;;14.30;99.90;;;;;;5009131;28;20552;-74
2023/09/26 05:03:02;;;;;;;18.15;15.63;;;14.20;99.90;;;;;;4977300;28;20815;-74
2023/09/26 05:05:28;;;;;;;19.37;15.87;;;14.10;99.90;;;;;;4978159;28;20414;-74
2023/09/26 05:07:55;;;;;;;19.70;15.88;;;14.10;99.90;;;;;;4979842;28;20409;-73
2023/09/26 05:10:21;;;;;;;20.57;14.93;;;14.00;99.90;;;;;;4999160;28;20420;-74
2023/09/26 05:12:46;;;;;;;19.90;15.17;;;14.10;99.90;;;;;;4998950;28;20415;-74
2023/09/26 05:15:17;;;;;;;19.63;14.97;;;14.00;99.90;;;;;;4974296;28;20422;-74
2023/09/26 05:17:52;;;;;;;18.27;14.38;;;13.90;99.90;;;;;;5004978;28;20432;-74
2023/09/26 05:20:18;;;;;;;17.83;14.93;;;13.90;99.90;;;;;;4997138;28;20434;-74
2023/09/26 05:22:46;;;;;;;17.45;14.38;;;13.90;99.90;;;;;;4976537;28;20414;-75
2023/09/26 05:25:12;;;;;;;17.73;14.75;;;14.00;99.90;;;;;;4990641;28;20438;-74
2023/09/26 05:27:38;;;;;;;20.60;14.70;;;13.90;99.90;;;;;;4994275;28;20899;-75
2023/09/26 05:30:06;;;;;;;18.20;15.02;;;13.90;99.90;;;;;;4990745;28;20564;-74
2023/09/26 05:32:32;;;;;;;17.88;14.85;;;;;;;;;;4997532;28;20441;-74
2023/09/26 05:34:58;;;;;;;17.15;14.68;;;13.90;99.90;;;;;;4976994;28;20437;-74
2023/09/26 05:37:24;;;;;;;23.23;15.57;;;13.60;99.90;;;;;;4985022;28;20423;-74
2023/09/26 05:39:50;;;;;;;23.13;15.18;;;13.80;99.90;;;;;;4980632;28;20427;-74
2023/09/26 05:42:16;;;;;;;23.73;15.07;;;13.80;99.90;;;;;;4976897;28;21002;-74
2023/09/26 05:44:42;;;;;;;21.30;14.88;;;13.90;99.90;;;;;;4974059;28;20422;-75
2023/09/26 05:47:08;;;;;;;18.90;15.20;;;13.70;99.90;;;;;;4979884;28;20768;-74
2023/09/26 05:49:33;;;;;;;17.97;14.70;;;13.80;99.90;;;;;;5002918;28;20498;-74
2023/09/26 05:51:59;;;;;;;33.07;16.80;;;13.80;99.90;;;;;;4977344;28;20417;-74
2023/09/26 05:54:25;;;;;;;46.83;17.40;;;;;;;;;;4979460;28;20410;-72
2023/09/26 05:56:51;;;;;;;30.77;16.77;;;13.80;99.90;;;;;;4975437;28;20411;-74
2023/09/26 05:59:16;;;;;;;35.22;16.95;;;13.70;99.90;;;;;;5000304;28;20427;-74
2023/09/26 06:01:42;;;;;;;27.00;16.27;;;13.70;99.90;;;;;;4993840;28;20426;-74
2023/09/26 06:04:08;;;;;;;21.07;15.57;;;13.50;99.90;;;;;;4976674;28;20454;-74
2023/09/26 06:06:34;;;;;;;18.83;15.13;;;13.80;99.90;;;;;;4990417;28;20551;-75
2023/09/26 06:08:59;;;;;;;18.20;14.77;;;13.80;99.90;;;;;;5002703;28;20451;-74
2023/09/26 06:11:25;;;;;;;18.38;15.02;;;13.70;99.90;;;;;;4978481;28;20503;-74
2023/09/26 06:13:52;;;;;;;18.45;15.15;;;13.80;99.90;;;;;;4977015;28;20417;-74
2023/09/26 06:16:22;;;;;;;18.83;14.90;;;13.90;99.90;;;;;;5055070;28;21051;-75
2023/09/26 06:18:48;;;;;;;19.35;15.20;;;14.00;99.90;;;;;;4996292;28;20738;-74
2023/09/26 06:21:14;;;;;;;16.85;14.45;;;13.90;99.90;;;;;;4993143;28;20483;-74
2023/09/26 06:23:40;;;;;;;16.77;14.32;;;14.10;99.90;;;;;;4978204;28;20421;-74
2023/09/26 06:26:07;;;;;;;17.60;13.98;;;14.20;99.90;;;;;;4999976;28;20414;-74
2023/09/26 06:28:34;;;;;;;17.25;14.10;;;14.10;99.90;;;;;;5005473;28;20934;-75
2023/09/26 06:31:06;;;;;;;19.98;14.48;;;14.00;99.90;;;;;;4980013;28;20422;-74
2023/09/26 06:33:32;;;;;;;19.25;14.68;;;14.20;99.90;;;;;;4976312;28;20421;-74
2023/09/26 06:35:59;;;;;;;17.98;14.38;;;13.90;99.90;;;;;;4985726;28;20446;-75
2023/09/26 06:38:24;;;;;;;17.33;14.07;;;14.10;99.90;;;;;;5002849;28;20897;-81
2023/09/26 06:41:01;;;;;;;18.03;14.17;;;14.10;99.90;;;;;;5002430;28;20483;-82
2023/09/26 06:43:27;;;;;;;16.33;13.45;;;;;;;;;;4990543;28;20426;-83
2023/09/26 06:45:53;;;;;;;16.15;14.30;;;14.40;99.90;;;;;;4982083;28;20846;-82
2023/09/26 06:48:19;;;;;;;17.10;14.50;;;14.20;99.90;;;;;;4989659;28;20490;-83
2023/09/26 06:50:44;;;;;;;19.02;13.82;;;14.40;99.90;;;;;;4990104;28;20770;-82
2023/09/26 06:53:10;;;;;;;17.73;13.73;;;14.40;99.90;;;;;;4994358;28;20414;-82
2023/09/26 06:55:39;;;;;;;19.83;14.40;;;14.50;99.90;;;;;;4995642;28;20421;-82
2023/09/26 06:58:08;;;;;;;17.07;13.70;;;14.50;99.90;;;;;;4973851;28;20906;-83
2023/09/26 07:00:39;;;;;;;19.35;13.80;;;14.70;99.90;;;;;;4993757;28;20977;-83
2023/09/26 07:03:06;;;;;;;16.67;14.18;;;14.60;99.90;;;;;;5004036;28;20457;-82
2023/09/26 07:05:32;;;;;;;19.33;14.77;;;14.60;99.90;;;;;;5020958;28;20432;-83
2023/09/26 07:07:57;;;;;;;18.00;14.95;;;14.60;99.90;;;;;;4988809;28;20411;-84
2023/09/26 07:10:24;;;;;;;16.33;14.33;;;14.60;99.90;;;;;;4988887;28;20415;-83
2023/09/26 07:12:51;;;;;;;16.40;13.50;;;14.80;99.90;;;;;;4973552;28;20415;-85
2023/09/26 07:15:18;;;;;;;16.63;13.23;;;14.80;99.90;;;;;;5001439;28;20426;-84
2023/09/26 07:17:44;;;;;;;17.37;13.47;;;15.10;99.90;;;;;;4993876;28;20801;-85
2023/09/26 07:20:13;;;;;;;15.70;12.97;;;15.10;99.90;;;;;;4971528;28;20433;-84
2023/09/26 07:22:42;;;;;;;16.55;13.30;;;15.00;99.90;;;;;;4997519;28;20468;-84
2023/09/26 07:25:10;;;;;;;18.17;13.07;;;15.20;99.90;;;;;;5002499;28;20805;-84
2023/09/26 07:27:35;;;;;;;17.00;13.27;;;15.10;99.90;;;;;;4998255;28;20409;-82
2023/09/26 07:30:01;;;;;;;16.93;13.07;;;16.00;99.90;;;;;;4966877;28;20461;-82
2023/09/26 07:32:27;;;;;;;18.17;13.07;;;15.20;99.90;;;;;;4972959;28;20434;-82
2023/09/26 07:34:53;;;;;;;18.17;12.90;;;15.10;99.90;;;;;;4973074;28;20540;-82
2023/09/26 07:37:18;;;;;;;18.38;13.18;;;15.30;99.90;;;;;;4987266;28;20455;-82
2023/09/26 07:39:49;;;;;;;16.05;12.80;;;15.30;99.90;;;;;;4973390;28;21038;-82
2023/09/26 07:42:14;;;;;;;17.10;13.75;;;15.20;99.90;;;;;;4989883;28;20418;-81
2023/09/26 07:44:40;;;;;;;16.35;12.65;;;15.30;99.90;;;;;;4991296;28;20423;-81
2023/09/26 07:47:06;;;;;;;17.25;13.15;;;15.40;99.90;;;;;;4960608;28;20745;-81
2023/09/26 07:49:32;;;;;;;16.25;12.48;;;15.30;99.90;;;;;;5006872;28;20489;-81
2023/09/26 07:51:57;;;;;;;19.08;13.18;;;15.20;99.90;;;;;;4989455;28;20494;-81
2023/09/26 07:54:23;;;;;;;16.30;12.90;;;15.40;99.90;;;;;;4988540;28;20423;-81
2023/09/26 07:56:49;;;;;;;18.20;13.03;;;15.60;99.90;;;;;;4991788;28;20427;-81
2023/09/26 07:59:14;;;;;;;19.08;12.70;;;15.40;99.90;;;;;;4979232;28;20442;-79
2023/09/26 08:01:40;;;;;;;15.55;12.30;;;15.50;99.90;;;;;;4995566;28;20465;-82
2023/09/26 08:04:07;;;;;;;15.70;12.80;;;15.40;99.90;;;;;;4990383;28;20410;-82
2023/09/26 08:06:33;;;;;;;15.52;12.98;;;15.50;99.90;;;;;;4988767;28;20409;-80
2023/09/26 08:08:59;;;;;;;17.20;13.15;;;15.50;99.90;;;;;;4988807;28;20434;-81
2023/09/26 08:11:28;;;;;;;16.17;13.03;;;15.50;99.90;;;;;;4977638;28;20428;-81
2023/09/26 08:13:54;;;;;;;17.02;13.05;;;15.70;99.90;;;;;;4996789;28;20450;-82
2023/09/26 08:16:21;;;;;;;16.40;12.48;;;15.60;99.90;;;;;;5002879;28;20436;-82
2023/09/26 08:18:49;;;;;;;15.53;12.77;;;15.70;99.90;;;;;;5000127;28;20616;-82
2023/09/26 08:21:15;;;;;;;16.98;13.18;;;15.80;99.90;;;;;;4989616;28;20904;-82
2023/09/26 08:23:41;;;;;;;16.80;12.20;;;16.10;99.90;;;;;;4994518;28;20493;-81
2023/09/26 08:26:10;;;;;;;19.42;13.18;;;16.20;99.90;;;;;;4991673;28;20487;-83
2023/09/26 08:28:36;;;;;;;18.38;12.52;;;16.10;99.90;;;;;;4990633;28;20464;-82
2023/09/26 08:31:07;;;;;;;17.00;12.73;;;16.10;99.90;;;;;;4984099;28;20421;-81
2023/09/26 08:33:34;;;;;;;17.00;12.85;;;16.00;99.90;;;;;;4981736;28;20781;-81
2023/09/26 08:36:00;;;;;;;17.43;12.47;;;16.20;99.90;;;;;;4994351;28;20418;-81
2023/09/26 08:38:25;;;;;;;17.00;12.67;;;15.90;99.90;;;;;;5023644;28;20418;-81
2023/09/26 08:40:51;;;;;;;19.63;12.70;;;16.10;99.90;;;;;;4993720;28;20435;-81
2023/09/26 08:43:25;;;;;;;19.20;12.25;;;16.50;99.90;;;;;;4996164;28;20410;-81
2023/09/26 08:45:52;;;;;;;17.55;12.88;;;16.40;99.90;;;;;;4981884;28;20413;-81
2023/09/26 08:48:18;;;;;;;17.27;12.57;;;16.40;99.90;;;;;;4975386;28;20410;-82
2023/09/26 08:50:44;;;;;;;16.00;12.00;;;16.40;99.90;;;;;;4993608;28;20450;-81
2023/09/26 08:53:10;;;;;;;14.45;12.15;;;16.50;99.90;;;;;;4972639;28;20445;-81
2023/09/26 08:55:39;;;;;;;20.85;12.45;;;16.70;99.90;;;;;;4993936;28;20428;-81
2023/09/26 08:58:05;;;;;;;19.42;12.25;;;16.90;99.90;;;;;;4990350;28;20442;-81
2023/09/26 09:00:31;;;;;;;14.88;11.52;;;16.90;99.90;;;;;;4993336;28;20429;-80
2023/09/26 09:02:57;;;;;;;15.77;11.80;;;16.90;99.90;;;;;;4995835;28;20816;-80
2023/09/26 09:05:23;;;;;;;16.80;11.63;;;17.00;99.90;;;;;;4990944;28;20460;-80
2023/09/26 09:07:49;;;;;;;17.52;11.40;;;17.20;99.90;;;;;;4984537;28;20412;-81
2023/09/26 09:10:18;;;;;;;15.15;10.80;;;17.40;99.90;;;;;;4994890;28;22138;-82
2023/09/26 09:12:52;;;;;;;15.67;11.77;;;17.60;99.90;;;;;;4972156;28;20418;-83
2023/09/26 09:15:20;;;;;;;17.27;10.63;;;17.80;99.90;;;;;;4980271;28;20921;-83
2023/09/26 09:17:47;;;;;;;15.25;10.48;;;17.70;99.90;;;;;;4970922;28;20413;-82
2023/09/26 09:20:16;;;;;;;16.42;10.50;;;18.00;99.90;;;;;;4987635;28;20572;-86
2023/09/26 09:22:48;;;;;;;14.88;10.27;;;18.10;99.90;;;;;;4972187;28;20493;-83
2023/09/26 09:25:15;;;;;;;16.15;10.45;;;18.10;99.90;;;;;;4999948;28;20445;-83
2023/09/26 09:27:43;;;;;;;16.75;10.40;;;18.00;99.90;;;;;;4979451;28;20453;-84
2023/09/26 09:30:14;;;;;;;22.08;11.05;;;18.00;99.90;;;;;;4973763;28;20458;-83
2023/09/26 09:32:43;;;;;;;16.55;11.18;;;18.30;99.90;;;;;;4996622;28;20418;-83
2023/09/26 09:35:10;;;;;;;18.15;10.48;;;18.50;99.90;;;;;;4995673;28;20419;-84
2023/09/26 09:37:36;;;;;;;17.00;10.45;;;18.70;99.90;;;;;;4991897;28;20405;-84
2023/09/26 09:40:03;;;;;;;15.90;10.50;;;18.70;99.90;;;;;;5001178;28;20774;-83
2023/09/26 09:42:29;;;;;;;18.80;9.98;;;18.80;99.90;;;;;;4965926;28;20440;-85
2023/09/26 09:44:56;;;;;;;17.23;10.02;;;19.10;99.90;;;;;;4990943;28;20423;-85
2023/09/26 09:47:23;;;;;;;14.10;9.35;;;19.20;99.90;;;;;;4992668;28;20434;-84
2023/09/26 09:49:51;;;;;;;13.23;8.33;;;19.20;99.90;;;;;;5000002;28;20418;-84
2023/09/26 09:52:21;;;;;;;13.55;8.77;;;19.30;99.90;;;;;;4991146;28;20425;-85
2023/09/26 09:54:50;;;;;;;18.75;8.43;;;19.30;99.90;;;;;;4978520;28;20433;-85
2023/09/26 09:57:20;;;;;;;15.30;8.30;;;19.50;99.90;;;;;;4977183;28;20476;-85
2023/09/26 09:59:46;;;;;;;11.75;8.40;;;19.70;99.90;;;;;;4982557;28;20452;-85
2023/09/26 10:02:16;;;;;;;11.15;7.68;;;19.60;99.90;;;;;;4974266;28;20454;-85
2023/09/26 10:04:44;;;;;;;15.00;7.95;;;19.90;99.90;;;;;;4999405;28;20407;-85
2023/09/26 10:07:12;;;;;;;14.02;7.47;;;20.50;99.90;;;;;;4991721;28;20607;-84
2023/09/26 10:09:39;;;;;;;12.05;7.15;;;20.40;99.90;;;;;;5008206;28;20402;-84
2023/09/26 10:12:06;;;;;;;21.60;7.43;;;20.10;99.90;;;;;;5008857;28;20433;-84
2023/09/26 10:14:32;;;;;;;11.63;6.93;;;20.30;99.90;;;;;;5004606;28;20421;-84
2023/09/26 10:16:59;;;;;;;11.18;6.90;;;20.30;99.90;;;;;;5005591;28;20413;-84
2023/09/26 10:19:27;;;;;;;10.32;7.00;;;20.50;99.90;;;;;;4991259;28;20427;-84
2023/09/26 10:21:52;;;;;;;10.80;6.80;;;20.40;99.90;;;;;;4981610;28;20432;-83
2023/09/26 10:24:18;;;;;;;14.33;7.00;;;20.50;99.90;;;;;;4976740;28;20427;-85
2023/09/26 10:26:49;;;;;;;10.27;6.97;;;20.50;99.90;;;;;;4990303;28;20410;-85
2023/09/26 10:29:14;;;;;;;12.15;7.40;;;20.60;99.90;;;;;;4989777;28;20491;-85
2023/09/26 10:31:53;;;;;;;14.27;7.53;;;20.80;99.90;;;;;;4990265;28;20879;-84
2023/09/26 10:34:36;;;;;;;11.23;7.53;;;20.60;99.90;;;;;;4975316;28;20419;-84
2023/09/26 10:37:05;;;;;;;11.65;7.30;;;20.10;99.90;;;;;;4994578;28;20981;-84
2023/09/26 10:39:39;;;;;;;12.25;7.85;;;20.20;99.90;;;;;;5001765;28;20417;-84
2023/09/26 10:42:17;;;;;;;13.48;7.32;;;20.50;99.90;;;;;;5006567;28;20466;-85
2023/09/26 10:44:49;;;;;;;11.48;7.47;;;20.60;99.90;;;;;;4989936;28;20415;-85
2023/09/26 10:47:16;;;;;;;13.95;8.25;;;20.80;99.90;;;;;;4996753;28;20401;-85
2023/09/26 10:49:45;;;;;;;14.35;8.02;;;20.50;99.90;;;;;;5001865;28;20397;-84
2023/09/26 10:52:12;;;;;;;11.98;7.70;;;20.70;99.90;;;;;;5000786;28;20431;-84
2023/09/26 10:54:39;;;;;;;15.97;8.60;;;18.70;99.90;;;;;;4982576;28;20410;-84
2023/09/26 10:57:05;;;;;;;13.93;7.95;;;20.70;99.90;;;;;;4998610;28;20454;-84
2023/09/26 10:59:32;;;;;;;13.27;8.30;;;20.90;99.90;;;;;;5004654;28;20509;-84
2023/09/26 11:01:59;;;;;;;12.73;8.65;;;21.10;99.90;;;;;;4980918;28;20431;-83
2023/09/26 11:04:31;;;;;;;12.30;7.65;;;20.60;99.90;;;;;;4990081;28;20410;-82
2023/09/26 11:07:02;;;;;;;12.77;8.03;;;20.80;99.90;;;;;;4983080;28;20405;-84
2023/09/26 11:09:29;;;;;;;13.10;7.32;;;20.20;99.90;;;;;;5003349;28;20414;-84
2023/09/26 11:11:56;;;;;;;11.07;7.45;;;20.40;99.90;;;;;;4977656;28;20442;-83
2023/09/26 11:14:23;;;;;;;10.82;7.50;;;20.40;99.90;;;;;;5007445;28;20415;-84
2023/09/26 11:16:49;;;;;;;10.52;7.47;;;20.40;99.90;;;;;;5059389;28;20497;-85
2023/09/26 11:19:15;;;;;;;10.87;6.87;;;20.40;99.90;;;;;;4996757;28;20410;-85
2023/09/26 11:21:40;;;;;;;9.17;7.03;;;20.00;99.90;;;;;;4972595;28;20576;-84
2023/09/26 11:24:32;;;;;;;12.13;7.53;;;20.20;99.90;;;;;;4989389;28;20411;-84
2023/09/26 11:27:04;;;;;;;9.85;7.50;;;20.30;99.90;;;;;;4978047;28;20415;-84
2023/09/26 11:29:30;;;;;;;11.57;8.02;;;20.00;99.90;;;;;;4988067;28;20505;-84
2023/09/26 11:31:57;;;;;;;11.75;7.70;;;20.00;99.90;;;;;;4974477;28;21014;-83
2023/09/26 11:34:24;;;;;;;11.32;7.93;;;20.00;99.90;;;;;;4960465;28;20774;-84
2023/09/26 11:36:50;;;;;;;12.73;7.47;;;20.30;99.90;;;;;;4966700;28;20413;-84
2023/09/26 11:39:21;;;;;;;10.30;7.40;;;19.80;99.90;;;;;;5003317;28;20486;-83
2023/09/26 11:41:47;;;;;;;13.10;7.57;;;20.00;99.90;;;;;;4995315;28;20518;-83
2023/09/26 11:44:15;;;;;;;10.85;7.20;;;19.90;99.90;;;;;;4973252;28;20508;-83
2023/09/26 11:46:44;;;;;;;11.80;7.60;;;20.50;99.90;;;;;;4973866;28;20406;-84
2023/09/26 11:49:12;;;;;;;13.30;7.40;;;20.30;99.90;;;;;;4990453;28;20409;-84
2023/09/26 11:51:38;;;;;;;14.85;7.32;;;20.40;99.90;;;;;;4990229;28;20419;-84
2023/09/26 11:54:07;;;;;;;10.82;6.60;;;20.70;99.90;;;;;;4992057;28;20512;-83
2023/09/26 11:56:34;;;;;;;11.23;7.10;;;21.00;99.90;;;;;;4991221;28;20495;-83
2023/09/26 11:59:06;;;;;;;12.43;7.40;;;20.90;99.90;;;;;;4975409;28;20422;-84
2023/09/26 12:01:32;;;;;;;12.85;7.47;;;20.70;99.90;;;;;;4991799;28;20512;-84
2023/09/26 12:04:04;;;;;;;13.00;7.40;;;20.70;99.90;;;;;;4980572;28;20404;-84
2023/09/26 12:06:31;;;;;;;12.87;7.70;;;20.80;99.90;;;;;;4994370;28;20439;-85
2023/09/26 12:08:57;;;;;;;11.90;8.07;;;20.40;99.90;;;;;;4972065;28;20403;-85
2023/09/26 12:11:23;;;;;;;12.60;7.85;;;20.80;99.90;;;;;;4986059;28;20427;-84
2023/09/26 12:13:49;;;;;;;13.32;8.07;;;21.10;99.90;;;;;;4992319;28;20532;-85
2023/09/26 12:16:14;;;;;;;13.35;7.35;;;20.80;99.90;;;;;;4978052;28;21053;-85
2023/09/26 12:18:40;;;;;;;12.23;7.82;;;21.30;99.90;;;;;;4989851;28;20414;-86
2023/09/26 12:21:06;;;;;;;13.20;7.67;;;21.30;99.90;;;;;;4989391;28;20422;-86
2023/09/26 12:23:32;;;;;;;12.30;7.95;;;21.20;99.90;;;;;;4946721;28;20409;-85
2023/09/26 12:25:57;;;;;;;12.75;7.80;;;21.20;99.90;;;;;;4972351;28;20514;-85
2023/09/26 12:28:23;;;;;;;12.60;8.57;;;21.70;99.90;;;;;;4976877;28;20433;-85
2023/09/26 12:30:49;;;;;;;13.07;7.97;;;21.20;99.90;;;;;;4989347;28;20410;-87